Time;durP1;ratioP1;P1;durP2;ratioP2;P2;SDS_P1;SDS_P2;PMS_P1;PMS_P2;Temp;Humidity;BMP_temperature;BMP_pressure;BME280_temperature;BME280_humidity;BME280_pressure;Samples;Min_cycle;Max_cycle;Signal;HPM_P1;HPM_P2
2023/02/04 00:00:47;;;;;;;244.13;108.72;;;;;;;-9.39;56.86;99939.09;4813428;29;20055;-87
2023/02/04 00:03:16;;;;;;;293.73;119.45;;;;;;;-9.39;56.86;99933.03;4796934;29;20538;-83
2023/02/04 00:05:42;;;;;;;284.75;119.05;;;;;;;-9.43;57.05;99926.09;4788939;29;20051;-83
2023/02/04 00:08:08;;;;;;;303.83;131.63;;;;;;;-9.55;57.07;99917.38;4787535;30;20055;-82
2023/02/04 00:10:35;;;;;;;287.98;117.68;;;;;;;-9.54;56.85;99934.63;4787720;30;20200;-84
2023/02/04 00:13:02;;;;;;;267.52;110.55;;;;;;;-9.54;57.08;99929.44;4787283;30;20059;-83
2023/02/04 00:15:29;;;;;;;262.42;117.22;;;;;;;-9.59;56.95;99925.97;4789393;29;20062;-83
2023/02/04 00:17:55;;;;;;;342.75;138.90;;;;;;;-9.65;57.20;99915.53;4804062;29;20412;-82
2023/02/04 00:20:21;;;;;;;291.20;120.65;;;;;;;-9.68;56.99;99920.66;4787626;30;20051;-83
2023/02/04 00:22:47;;;;;;;316.98;124.47;;;;;;;-9.72;57.42;99912.88;4788191;29;20054;-83
2023/02/04 00:25:13;;;;;;;338.15;126.78;;;;;;;-9.68;57.45;99918.06;4788365;29;20155;-82
2023/02/04 00:27:39;;;;;;;311.38;128.38;;;;;;;-9.66;57.83;99918.97;4788238;29;20130;-83
2023/02/04 00:30:07;;;;;;;310.80;122.43;;;;;;;-9.66;57.73;99913.81;4801243;29;20145;-82
2023/02/04 00:32:33;;;;;;;299.13;119.07;;;;;;;-9.62;57.91;99925.91;4786630;30;20054;-82
2023/02/04 00:35:00;;;;;;;250.80;104.18;;;;;;;-9.58;58.03;99922.50;4802232;29;20047;-82
2023/02/04 00:37:27;;;;;;;212.02;87.28;;;;;;;-9.55;57.98;99922.53;4787141;30;20142;-82
2023/02/04 00:39:53;;;;;;;219.15;89.30;;;;;;;-9.51;58.78;99927.72;4787957;30;20534;-84
2023/02/04 00:42:19;;;;;;;227.82;92.57;;;;;;;-9.46;58.33;99926.06;4787841;30;20146;-84
2023/02/04 00:44:44;;;;;;;269.92;95.95;;;;;;;-9.44;58.54;99920.06;4773941;30;20054;-83
2023/02/04 00:47:10;;;;;;;258.17;107.40;;;;;;;-9.42;58.68;99917.47;4802218;29;20051;-82
2023/02/04 00:49:36;;;;;;;355.67;145.80;;;;;;;-9.43;59.31;99915.75;4803601;29;20051;-83
2023/02/04 00:52:01;;;;;;;463.77;199.00;;;;;;;-9.34;59.01;99924.44;4806056;29;20074;-83
2023/02/04 00:54:27;;;;;;;470.48;214.13;;;;;;;-9.31;59.18;99921.03;4787493;30;20070;-82
2023/02/04 00:56:53;;;;;;;496.92;217.75;;;;;;;-9.28;59.15;99930.56;4801837;29;20112;-83
2023/02/04 00:59:19;;;;;;;466.77;210.52;;;;;;;-9.26;59.26;99937.47;4786879;30;20139;-82
2023/02/04 01:01:45;;;;;;;453.40;207.15;;;;;;;-9.30;58.94;99925.34;4786695;30;20142;-82
2023/02/04 01:04:13;;;;;;;401.20;189.18;;;;;;;-9.25;58.94;99931.47;4787737;29;20050;-83
2023/02/04 01:06:40;;;;;;;235.98;104.82;;;;;;;-9.54;58.73;99939.78;4787593;29;20046;-84
2023/02/04 01:09:07;;;;;;;249.13;108.90;;;;;;;-9.76;58.78;99940.41;4786706;29;20100;-83
2023/02/04 01:11:32;;;;;;;300.52;132.45;;;;;;;-9.74;58.73;99930.97;4788093;29;20090;-82
2023/02/04 01:13:59;;;;;;;210.75;95.38;;;;;;;-9.76;59.08;99940.41;4771507;30;20162;-85
2023/02/04 01:16:24;;;;;;;244.27;110.85;;;;;;;-9.82;58.54;99932.56;4801466;29;20055;-83
2023/02/04 01:18:50;;;;;;;235.63;102.22;;;;;;;-9.80;58.75;99938.66;4801837;29;20142;-83
2023/02/04 01:21:16;;;;;;;171.77;74.72;;;;;;;-9.87;58.47;99926.50;4771857;30;20051;-82
2023/02/04 01:23:42;;;;;;;137.25;66.78;;;;;;;-9.91;58.56;99932.47;4786414;30;20050;-83
2023/02/04 01:26:08;;;;;;;111.05;54.20;;;;;;;-9.95;58.70;99925.53;4786279;30;20139;-83
2023/02/04 01:28:34;;;;;;;207.65;93.28;;;;;;;-9.99;58.63;99924.63;4786358;30;20043;-83
2023/02/04 01:30:59;;;;;;;193.18;88.10;;;;;;;-9.99;58.54;99934.97;4787231;29;20289;-83
2023/02/04 01:33:25;;;;;;;186.75;80.40;;;;;;;-10.01;58.61;99913.41;4771493;30;20043;-82
2023/02/04 01:35:51;;;;;;;166.70;70.50;;;;;;;-9.98;58.81;99923.78;4786750;29;20051;-84
2023/02/04 01:38:17;;;;;;;141.43;68.45;;;;;;;-9.98;58.68;99935.84;4756984;30;20055;-84
2023/02/04 01:40:43;;;;;;;134.52;60.30;;;;;;;-10.00;58.36;99916.84;4787925;29;20090;-83
2023/02/04 01:43:10;;;;;;;92.57;46.40;;;;;;;-9.99;58.00;99929.81;4790334;29;20055;-84
2023/02/04 01:45:35;;;;;;;104.15;46.17;;;;;;;-10.17;57.95;99929.59;4790920;29;20055;-83
2023/02/04 01:48:03;;;;;;;94.18;44.45;;;;;;;-10.28;57.80;99926.88;4775433;30;20104;-83
2023/02/04 01:50:30;;;;;;;97.68;47.78;;;;;;;-10.33;58.19;99938.91;4791902;30;20127;-82
2023/02/04 01:52:57;;;;;;;92.03;42.47;;;;;;;-10.37;58.35;99932.81;4793860;30;20530;-83
2023/02/04 01:55:27;;;;;;;90.18;41.20;;;;;;;-10.32;58.57;99935.44;4776400;30;20572;-82
2023/02/04 01:57:54;;;;;;;82.20;37.00;;;;;;;-10.37;58.24;99921.59;4806960;29;20051;-84
2023/02/04 02:00:27;;;;;;;78.85;38.88;;;;;;;-10.38;58.14;99930.19;4804605;29;20051;-82
2023/02/04 02:02:53;;;;;;;65.82;34.72;;;;;;;-10.36;58.39;99931.09;4790268;30;20412;-82
2023/02/04 02:05:34;;;;;;;66.63;34.08;;;;;;;-10.41;58.17;99925.00;4789851;30;20492;-82
2023/02/04 02:08:03;;;;;;;67.65;31.70;;;;;;;-10.43;58.29;99926.69;4760054;30;20100;-82
2023/02/04 02:10:30;;;;;;;51.05;28.63;;;;;;;-10.50;58.52;99930.03;4774544;30;20051;-85
2023/02/04 02:12:56;;;;;;;62.47;30.48;;;;;;;-10.52;58.53;99933.47;4790419;29;20101;-85
2023/02/04 02:15:23;;;;;;;52.10;30.35;;;;;;;-10.48;58.42;99934.38;4774302;30;20478;-84
2023/02/04 02:17:50;;;;;;;51.53;28.40;;;;;;;-10.53;58.44;99929.16;4773957;30;20184;-85
2023/02/04 02:20:19;;;;;;;52.22;27.77;;;;;;;-10.49;58.31;99937.81;4789849;30;20117;-85
2023/02/04 02:23:14;;;;;;;53.75;26.52;;;;;;;-10.49;58.51;99936.94;4790794;30;20058;-81
2023/02/04 02:25:40;;;;;;;50.83;24.95;;;;;;;-10.59;58.74;99930.78;4790451;29;20055;-83
2023/02/04 02:28:11;;;;;;;49.90;25.50;;;;;;;-10.68;59.82;99931.53;4789909;30;20054;-82
2023/02/04 02:30:39;;;;;;;47.03;23.90;;;;;;;-10.68;59.36;99936.69;4789085;29;20051;-83
2023/02/04 02:33:07;;;;;;;55.17;25.90;;;;;;;-10.59;59.75;99939.41;4773990;30;20039;-82
2023/02/04 02:35:33;;;;;;;52.90;26.05;;;;;;;-10.52;59.53;99941.22;4788549;30;20047;-82
2023/02/04 02:37:59;;;;;;;51.70;25.90;;;;;;;-10.47;59.64;99930.06;4788718;30;20464;-82
2023/02/04 02:40:25;;;;;;;66.55;28.92;;;;;;;-10.35;59.48;99938.00;4773398;30;20189;-82
2023/02/04 02:42:52;;;;;;;55.72;30.08;;;;;;;-10.30;59.45;99931.19;4775135;30;20090;-82
2023/02/04 02:45:28;;;;;;;55.20;28.02;;;;;;;-10.19;59.71;99927.00;4789356;30;20583;-83
2023/02/04 02:47:58;;;;;;;49.05;26.67;;;;;;;-10.15;60.15;99935.66;4773918;30;20523;-83
2023/02/04 02:50:27;;;;;;;44.38;24.77;;;;;;;-10.13;59.56;99942.56;4788779;30;20139;-82
2023/02/04 02:52:55;;;;;;;42.92;21.85;;;;;;;-10.10;59.27;99945.19;4788481;29;20051;-82
2023/02/04 02:55:25;;;;;;;42.47;21.73;;;;;;;-10.08;59.69;99946.09;4773217;30;20551;-82
2023/02/04 02:57:52;;;;;;;58.47;25.13;;;;;;;-10.07;59.80;99940.06;4773548;30;20050;-83
2023/02/04 03:00:22;;;;;;;44.25;25.63;;;;;;;-10.19;59.56;99929.56;4788374;30;20050;-82
2023/02/04 03:03:11;;;;;;;50.45;28.48;;;;;;;-10.04;60.03;99942.69;4773572;30;20555;-82
2023/02/04 03:05:41;;;;;;;47.00;25.90;;;;;;;-10.05;60.10;99948.69;4788059;30;20135;-83
2023/02/04 03:08:11;;;;;;;56.88;29.75;;;;;;;-10.03;59.56;99952.19;4773484;30;20058;-82
2023/02/04 03:10:37;;;;;;;45.90;26.10;;;;;;;-10.07;59.17;99953.00;4803194;29;20059;-82
2023/02/04 03:13:03;;;;;;;43.42;27.60;;;;;;;-10.15;59.14;99952.03;4788972;29;20535;-82
2023/02/04 03:15:30;;;;;;;54.13;28.30;;;;;;;-10.16;59.07;99946.81;4788374;29;20519;-83
2023/02/04 03:17:57;;;;;;;53.53;27.60;;;;;;;-10.13;59.29;99952.91;4787943;30;20085;-83
2023/02/04 03:20:25;;;;;;;62.30;28.30;;;;;;;-10.17;59.27;99958.88;4773052;30;20123;-83
2023/02/04 03:22:51;;;;;;;52.55;28.17;;;;;;;-10.16;59.32;99963.19;4788245;30;20062;-83
2023/02/04 03:25:19;;;;;;;58.15;28.38;;;;;;;-10.27;59.01;99951.88;4802852;29;20051;-83
2023/02/04 03:27:46;;;;;;;62.10;27.90;;;;;;;-10.34;59.42;99957.81;4772847;30;20055;-84
2023/02/04 03:30:12;;;;;;;51.50;28.70;;;;;;;-10.32;59.54;99953.53;4787648;29;20093;-83
2023/02/04 03:32:38;;;;;;;57.50;29.67;;;;;;;-10.34;59.60;99947.47;4787771;30;20043;-84
2023/02/04 03:35:04;;;;;;;56.20;30.02;;;;;;;-10.37;59.79;99956.06;4787722;30;20066;-82
2023/02/04 03:37:29;;;;;;;57.00;31.58;;;;;;;-10.37;59.86;99957.78;4787667;30;20050;-85
2023/02/04 03:39:55;;;;;;;62.55;32.75;;;;;;;-10.36;60.10;99949.19;4772881;30;20185;-83
2023/02/04 03:42:21;;;;;;;54.25;29.58;;;;;;;-10.34;60.12;99953.53;4772657;30;20492;-84
2023/02/04 03:44:47;;;;;;;59.80;30.85;;;;;;;-10.43;60.62;99949.94;4788434;30;20397;-85
2023/02/04 03:47:12;;;;;;;57.85;33.45;;;;;;;-10.28;60.18;99968.25;4787220;30;20486;-84
2023/02/04 03:49:38;;;;;;;61.72;33.80;;;;;;;-10.30;60.29;99970.81;4787443;30;20504;-83
2023/02/04 03:52:04;;;;;;;67.18;32.47;;;;;;;-10.34;59.99;99975.91;4772860;30;20059;-82
2023/02/04 03:54:30;;;;;;;57.08;31.75;;;;;;;-10.55;60.43;99969.59;4789307;29;20085;-81
2023/02/04 03:56:56;;;;;;;66.78;33.47;;;;;;;-10.46;60.26;99978.31;4772576;30;20047;-83
2023/02/04 03:59:21;;;;;;;65.80;33.65;;;;;;;-10.44;60.02;99984.38;4802211;29;20059;-85
2023/02/04 04:01:47;;;;;;;55.42;30.73;;;;;;;-10.50;60.39;99989.47;4787311;30;20062;-82
2023/02/04 04:04:13;;;;;;;66.55;34.53;;;;;;;-10.50;59.90;99985.16;4788351;30;20113;-86
2023/02/04 04:06:39;;;;;;;60.58;31.58;;;;;;;-10.52;59.88;99990.31;4771725;30;20416;-81
2023/02/04 04:09:05;;;;;;;64.70;31.50;;;;;;;-10.58;60.09;99974.72;4788560;30;20064;-83
2023/02/04 04:11:31;;;;;;;64.63;31.90;;;;;;;-10.53;60.23;99990.25;4772392;30;20051;-82
2023/02/04 04:13:56;;;;;;;54.63;29.85;;;;;;;-10.55;60.53;99989.38;4786955;30;20074;-83
2023/02/04 04:16:22;;;;;;;62.25;30.88;;;;;;;-10.57;60.04;99993.66;4771900;30;20627;-81
2023/02/04 04:18:48;;;;;;;53.08;28.98;;;;;;;-10.54;60.60;99986.81;4801928;29;20059;-79
2023/02/04 04:21:14;;;;;;;56.53;29.83;;;;;;;-10.45;60.54;99995.59;4772612;30;20515;-90
2023/02/04 04:23:40;;;;;;;58.85;29.85;;;;;;;-10.44;60.74;99986.97;4772251;30;20059;-83
2023/02/04 04:26:05;;;;;;;52.95;29.90;;;;;;;-10.39;60.95;99991.34;4771750;30;20142;-84
2023/02/04 04:28:31;;;;;;;59.83;32.35;;;;;;;-10.29;61.02;99988.06;4772072;30;20070;-83
2023/02/04 04:30:57;;;;;;;62.08;29.63;;;;;;;-10.20;60.69;99992.44;4772174;30;20049;-81
2023/02/04 04:33:23;;;;;;;56.90;26.38;;;;;;;-10.13;60.45;99993.41;4788263;29;20081;-80
2023/02/04 04:35:48;;;;;;;41.47;25.60;;;;;;;-10.11;60.15;99987.41;4786930;30;20047;-83
2023/02/04 04:38:14;;;;;;;47.67;22.58;;;;;;;-10.37;60.87;99999.13;4786677;30;20062;-87
2023/02/04 04:40:40;;;;;;;41.55;17.73;;;;;;;-10.69;62.30;100002.09;4772252;30;20149;-79
2023/02/04 04:43:06;;;;;;;44.58;25.17;;;;;;;-10.75;62.10;100002.00;4787905;30;20051;-83
2023/02/04 04:45:32;;;;;;;47.42;25.13;;;;;;;-10.58;61.82;99997.97;4773179;30;20089;-85
2023/02/04 04:47:57;;;;;;;41.80;25.25;;;;;;;-10.62;61.98;100009.09;4786968;30;20145;-82
2023/02/04 04:50:23;;;;;;;47.70;26.05;;;;;;;-10.80;63.41;100004.50;4788544;30;20055;-81
2023/02/04 04:52:49;;;;;;;48.50;28.13;;;;;;;-10.68;63.47;100011.59;4789479;30;20412;-84
2023/02/04 04:55:15;;;;;;;52.60;26.65;;;;;;;-10.79;63.59;100010.56;4772163;30;20043;-82
2023/02/04 04:57:41;;;;;;;55.28;29.17;;;;;;;-10.92;63.79;100008.59;4786576;30;20090;-80
2023/02/04 05:00:08;;;;;;;49.72;27.33;;;;;;;-10.96;64.11;100028.31;4787620;30;20047;-83
2023/02/04 05:02:34;;;;;;;72.47;34.58;;;;;;;-10.79;64.27;100038.97;4758061;30;20047;-80
2023/02/04 05:04:59;;;;;;;56.50;29.52;;;;;;;-10.79;65.58;100026.06;4772880;30;20047;-82
2023/02/04 05:07:26;;;;;;;56.70;31.67;;;;;;;-10.45;66.17;100029.16;4786687;30;20104;-82
2023/02/04 05:09:52;;;;;;;58.15;33.58;;;;;;;-10.15;64.36;100026.13;4771655;30;20116;-83
2023/02/04 05:12:18;;;;;;;54.90;28.70;;;;;;;-10.07;63.00;100029.69;4786255;30;20500;-83
2023/02/04 05:14:43;;;;;;;57.47;30.00;;;;;;;-10.00;62.46;100020.28;4787495;29;20052;-81
2023/02/04 05:17:10;;;;;;;53.15;27.90;;;;;;;-9.86;62.31;100029.09;4772256;30;20050;-84
2023/02/04 05:19:36;;;;;;;49.92;25.88;;;;;;;-9.66;61.59;100014.72;4787056;30;20044;-83
2023/02/04 05:22:01;;;;;;;45.08;25.73;;;;;;;-9.45;61.11;100026.16;4772032;30;20227;-83
2023/02/04 05:24:27;;;;;;;48.05;25.50;;;;;;;-9.34;60.97;100027.13;4786694;30;20056;-83
2023/02/04 05:26:53;;;;;;;50.17;26.63;;;;;;;-9.19;60.48;100018.66;4757332;30;20159;-84
2023/02/04 05:29:19;;;;;;;44.25;23.83;;;;;;;-9.12;60.10;100016.16;4771709;30;20040;-86
2023/02/04 05:31:45;;;;;;;44.70;26.42;;;;;;;-8.91;60.52;100014.59;4787688;30;20048;-83
2023/02/04 05:34:10;;;;;;;42.03;24.63;;;;;;;-8.67;59.73;100020.00;4771951;30;20147;-84
2023/02/04 05:36:36;;;;;;;48.92;26.40;;;;;;;-8.44;59.62;100014.16;4776678;30;20031;-85
2023/02/04 05:39:02;;;;;;;47.97;25.85;;;;;;;-8.23;59.19;100016.84;4757536;30;20565;-86
2023/02/04 05:41:28;;;;;;;46.67;23.08;;;;;;;-8.19;58.76;100018.63;4786749;30;20055;-89
2023/02/04 05:43:54;;;;;;;51.60;28.20;;;;;;;-8.07;58.64;100023.88;4773380;30;20043;-86
2023/02/04 05:46:20;;;;;;;56.25;29.67;;;;;;;-7.89;58.66;100017.06;4756870;30;20142;-85
2023/02/04 05:48:46;;;;;;;62.53;31.08;;;;;;;-7.63;58.57;100020.63;4773030;30;20145;-84
2023/02/04 05:51:11;;;;;;;61.10;32.63;;;;;;;-7.48;58.47;100019.84;4784023;30;20054;-83
2023/02/04 05:53:37;;;;;;;66.40;34.80;;;;;;;-7.26;57.82;100020.75;4787363;30;20889;-86
2023/02/04 05:56:03;;;;;;;64.97;36.40;;;;;;;-7.07;57.70;100028.59;4787529;30;20427;-86
2023/02/04 05:58:32;;;;;;;70.82;38.35;;;;;;;-6.87;57.66;100029.50;4780101;30;20070;-87
2023/02/04 06:01:02;;;;;;;69.03;38.13;;;;;;;-6.82;56.92;100019.97;4766485;30;20043;-86
2023/02/04 06:03:29;;;;;;;66.53;37.35;;;;;;;-6.74;57.02;100014.78;4770268;30;20043;-85
2023/02/04 06:05:56;;;;;;;74.70;39.72;;;;;;;-6.71;56.38;100026.03;4790156;29;20059;-83
2023/02/04 06:08:23;;;;;;;76.32;39.58;;;;;;;-6.69;56.50;100018.25;4790225;29;20113;-85
2023/02/04 06:10:51;;;;;;;72.05;38.00;;;;;;;-6.58;56.67;100010.44;4788639;30;20051;-86
2023/02/04 06:13:17;;;;;;;77.03;40.38;;;;;;;-6.37;56.29;100023.44;4790053;29;20086;-84
2023/02/04 06:15:43;;;;;;;103.30;51.00;;;;;;;-6.29;56.06;100024.28;4774024;30;20047;-85
2023/02/04 06:18:13;;;;;;;86.05;41.38;;;;;;;-6.17;56.20;100019.09;4758954;30;20409;-86
2023/02/04 06:20:39;;;;;;;120.05;57.88;;;;;;;-5.98;55.96;100019.94;4757692;30;20055;-81
2023/02/04 06:23:05;;;;;;;132.40;63.45;;;;;;;-5.84;55.97;100016.38;4757691;30;20059;-81
2023/02/04 06:25:30;;;;;;;148.98;71.70;;;;;;;-5.76;55.98;100015.47;4757818;30;20043;-80
2023/02/04 06:27:56;;;;;;;164.38;75.88;;;;;;;-5.61;55.93;100020.63;4756765;30;20508;-83
2023/02/04 06:30:22;;;;;;;173.35;78.65;;;;;;;-5.62;56.07;100024.09;4769272;30;20060;-83
2023/02/04 06:32:48;;;;;;;175.80;82.65;;;;;;;-5.51;55.98;100025.81;4770297;30;20520;-82
2023/02/04 06:35:15;;;;;;;208.20;97.13;;;;;;;-5.55;55.74;100024.09;4769586;30;20112;-80
2023/02/04 06:37:42;;;;;;;209.95;99.07;;;;;;;-5.74;56.48;100028.50;4754456;30;20151;-87
2023/02/04 06:40:09;;;;;;;225.43;105.93;;;;;;;-5.73;56.71;100030.22;4755214;30;20055;-84
2023/02/04 06:42:35;;;;;;;228.18;106.60;;;;;;;-5.52;56.59;100021.50;4755167;30;20112;-84
2023/02/04 06:45:00;;;;;;;228.32;106.30;;;;;;;-5.60;56.30;100026.72;4741077;30;20205;-83
2023/02/04 06:47:26;;;;;;;237.48;113.53;;;;;;;-5.79;56.40;100012.91;4769962;30;20063;-83
2023/02/04 06:49:52;;;;;;;246.30;100.22;;;;;;;-5.99;57.27;100017.31;4755794;30;20432;-83
2023/02/04 06:52:18;;;;;;;250.35;110.30;;;;;;;-6.18;58.38;100017.34;4770517;30;20055;-83
2023/02/04 06:54:44;;;;;;;277.20;122.22;;;;;;;-6.06;58.53;100020.78;4770396;30;20142;-83
2023/02/04 06:57:10;;;;;;;276.98;119.60;;;;;;;-5.83;58.80;100018.97;4770447;30;20531;-85
2023/02/04 06:59:38;;;;;;;263.27;121.78;;;;;;;-5.61;58.03;100025.84;4755882;30;20063;-84
2023/02/04 07:02:06;;;;;;;268.95;115.53;;;;;;;-5.43;57.73;100029.25;4770947;30;20533;-84
2023/02/04 07:04:33;;;;;;;279.92;121.00;;;;;;;-5.30;57.24;100024.84;4770885;30;20055;-84
2023/02/04 07:06:59;;;;;;;272.70;118.65;;;;;;;-5.24;57.39;100020.47;4755260;30;20512;-87
2023/02/04 07:09:25;;;;;;;298.52;121.07;;;;;;;-5.35;57.52;100017.06;4771260;30;20101;-86
2023/02/04 07:11:50;;;;;;;318.50;131.90;;;;;;;-5.17;58.03;100022.16;4769987;30;20563;-81
2023/02/04 07:14:17;;;;;;;317.05;137.25;;;;;;;-4.80;57.59;100023.69;4755048;30;20078;-84
2023/02/04 07:16:43;;;;;;;337.67;139.93;;;;;;;-4.65;56.50;100020.97;4754924;30;20056;-79
2023/02/04 07:19:09;;;;;;;365.38;154.38;;;;;;;-4.42;56.44;100024.25;4786541;30;20412;-85
2023/02/04 07:21:35;;;;;;;398.48;169.70;;;;;;;-4.40;56.02;100021.63;4745296;30;20093;-81
2023/02/04 07:24:01;;;;;;;422.40;177.80;;;;;;;-4.21;55.84;100018.00;4769654;30;20596;-84
2023/02/04 07:26:27;;;;;;;418.80;175.10;;;;;;;-3.97;56.12;100029.94;4740809;30;20047;-86
2023/02/04 07:28:53;;;;;;;386.38;169.05;;;;;;;-4.02;55.16;100028.25;4756284;30;20119;-89
2023/02/04 07:31:19;;;;;;;373.48;165.30;;;;;;;-4.05;55.78;100007.41;4771660;30;20424;-82
2023/02/04 07:33:45;;;;;;;329.75;143.73;;;;;;;-3.58;55.14;100013.84;4769302;30;20138;-82
2023/02/04 07:36:10;;;;;;;340.05;147.55;;;;;;;-3.25;54.55;100021.25;4769363;30;20123;-83
2023/02/04 07:38:36;;;;;;;316.73;140.35;;;;;;;-2.94;53.55;100023.44;4769327;30;20101;-83
2023/02/04 07:41:02;;;;;;;307.25;135.40;;;;;;;-2.72;53.13;100019.63;4754742;30;20405;-82
2023/02/04 07:43:28;;;;;;;282.55;128.70;;;;;;;-2.48;53.09;100018.41;4785406;29;20051;-85
2023/02/04 07:45:53;;;;;;;251.80;111.93;;;;;;;-2.42;51.54;100013.94;4788599;29;20546;-81
2023/02/04 07:48:19;;;;;;;237.70;111.35;;;;;;;-2.50;51.27;100014.94;4772881;30;20055;-88
2023/02/04 07:50:45;;;;;;;255.82;117.85;;;;;;;-2.22;51.14;100009.22;4789455;30;20057;-85
2023/02/04 07:53:11;;;;;;;238.50;114.10;;;;;;;-2.11;50.68;100007.28;4803249;29;20145;-85
2023/02/04 07:55:37;;;;;;;225.23;107.13;;;;;;;-2.16;50.14;100008.25;4788247;30;20104;-80
2023/02/04 07:58:03;;;;;;;199.95;99.78;;;;;;;-1.90;50.43;100005.16;4789220;30;20074;-80
2023/02/04 08:00:29;;;;;;;206.18;100.47;;;;;;;-1.76;49.93;100004.00;4802816;29;20180;-84
2023/02/04 08:02:55;;;;;;;190.68;96.47;;;;;;;-1.50;49.01;99992.16;4802881;29;20569;-84
2023/02/04 08:05:21;;;;;;;179.70;92.13;;;;;;;-1.24;49.31;99999.47;4802100;29;20058;-87
2023/02/04 08:07:47;;;;;;;177.77;89.15;;;;;;;-1.03;48.77;100000.75;4786485;30;20051;-85
2023/02/04 08:10:13;;;;;;;162.13;84.28;;;;;;;-0.98;48.08;99996.25;4786940;30;20055;-84
2023/02/04 08:12:39;;;;;;;146.30;78.15;;;;;;;-1.71;46.86;99996.91;4787216;29;20066;-84
2023/02/04 08:15:07;;;;;;;140.80;78.70;;;;;;;-1.81;48.01;100003.22;4786397;30;20604;-86
2023/02/04 08:17:33;;;;;;;137.77;74.05;;;;;;;-2.13;48.06;99992.50;4771389;30;20114;-85
2023/02/04 08:19:59;;;;;;;138.60;75.78;;;;;;;-1.99;48.67;100000.97;4773059;30;20058;-85
2023/02/04 08:22:25;;;;;;;140.88;77.78;;;;;;;-1.86;48.25;100006.84;4771446;30;20059;-86
2023/02/04 08:24:50;;;;;;;127.65;68.78;;;;;;;-1.69;47.87;99988.16;4771746;30;20055;-84
2023/02/04 08:27:16;;;;;;;119.97;71.03;;;;;;;-1.31;47.32;99996.13;4771894;30;20047;-84
2023/02/04 08:29:42;;;;;;;138.93;72.78;;;;;;;-1.08;46.81;99987.75;4786543;29;20468;-84
2023/02/04 08:32:12;;;;;;;139.75;72.65;;;;;;;-0.99;46.25;99997.16;4771467;30;20053;-84
2023/02/04 08:34:38;;;;;;;133.68;72.78;;;;;;;-0.88;46.45;99989.91;4771400;30;20047;-83
2023/02/04 08:37:04;;;;;;;135.55;69.03;;;;;;;-0.79;45.41;99983.56;4787143;29;20515;-81
2023/02/04 08:39:31;;;;;;;153.23;72.38;;;;;;;-0.88;45.88;99984.66;4771486;30;20055;-84
2023/02/04 08:41:57;;;;;;;129.00;70.30;;;;;;;-0.62;45.81;99986.66;4786609;30;20070;-83
2023/02/04 08:44:23;;;;;;;123.60;67.50;;;;;;;-0.26;44.95;99989.31;4786540;30;20134;-84
2023/02/04 08:46:49;;;;;;;128.02;61.63;;;;;;;-0.15;44.48;99978.47;4785454;30;20100;-84
2023/02/04 08:49:15;;;;;;;114.00;59.13;;;;;;;-0.08;44.05;99985.31;4801606;29;20519;-84
2023/02/04 08:51:41;;;;;;;117.45;64.10;;;;;;;0.05;43.93;99981.47;4771189;30;20051;-82
2023/02/04 08:54:07;;;;;;;112.95;62.70;;;;;;;0.30;43.70;99972.88;4786884;30;20135;-85
2023/02/04 08:56:34;;;;;;;111.47;60.13;;;;;;;0.52;43.38;99984.53;4786509;30;20130;-84
2023/02/04 08:59:00;;;;;;;107.22;59.97;;;;;;;0.56;43.10;99985.31;4787206;29;20062;-82
2023/02/04 09:01:26;;;;;;;103.38;58.70;;;;;;;0.64;42.92;99983.31;4771313;30;20051;-83
2023/02/04 09:03:52;;;;;;;103.53;58.00;;;;;;;0.73;42.68;99968.13;4786444;30;20083;-85
2023/02/04 09:06:18;;;;;;;92.38;54.03;;;;;;;0.91;42.24;99979.00;4785798;30;20051;-84
2023/02/04 09:08:43;;;;;;;104.45;56.45;;;;;;;0.98;41.70;99977.91;4787188;29;20511;-83
2023/02/04 09:11:11;;;;;;;104.53;56.95;;;;;;;1.04;41.57;99985.59;4785827;30;20043;-83
2023/02/04 09:13:38;;;;;;;102.55;57.22;;;;;;;0.41;41.33;99978.72;4771280;30;20063;-84
2023/02/04 09:16:04;;;;;;;99.40;56.15;;;;;;;-0.20;42.26;99978.63;4785700;30;20508;-84
2023/02/04 09:18:31;;;;;;;97.72;56.45;;;;;;;-0.26;42.43;99984.03;4770695;30;20051;-83
2023/02/04 09:20:58;;;;;;;97.30;54.92;;;;;;;-0.50;42.56;99980.25;4784271;30;20056;-84
2023/02/04 09:23:24;;;;;;;106.45;57.15;;;;;;;-0.53;43.39;99972.44;4785506;30;20520;-84
2023/02/04 09:25:50;;;;;;;97.70;57.33;;;;;;;-0.33;43.83;99978.06;4785089;30;20104;-84
2023/02/04 09:28:16;;;;;;;97.78;56.83;;;;;;;-0.54;43.28;99962.84;4785129;30;20059;-84
2023/02/04 09:30:44;;;;;;;101.25;57.60;;;;;;;-0.82;43.75;99979.28;4740584;30;20057;-83
2023/02/04 09:33:11;;;;;;;104.20;57.67;;;;;;;-1.16;44.27;99981.81;4740794;30;20109;-83
2023/02/04 09:35:37;;;;;;;110.03;56.40;;;;;;;-1.31;44.65;99982.16;4784939;30;20063;-84
2023/02/04 09:38:04;;;;;;;96.78;51.53;;;;;;;-1.18;44.22;99975.72;4769800;30;20090;-85
2023/02/04 09:40:33;;;;;;;104.28;56.15;;;;;;;-1.30;44.66;99976.84;4740700;30;20055;-83
2023/02/04 09:43:01;;;;;;;107.75;56.83;;;;;;;-1.11;44.39;99981.69;4770294;30;20142;-83
2023/02/04 09:45:31;;;;;;;98.53;55.83;;;;;;;-0.99;44.55;99970.91;4785501;30;20047;-84
2023/02/04 09:47:58;;;;;;;100.63;55.00;;;;;;;-0.76;44.23;99979.13;4784532;30;20062;-84
2023/02/04 09:50:27;;;;;;;110.15;59.47;;;;;;;-1.08;44.99;99973.75;4770549;30;20128;-84
2023/02/04 09:52:56;;;;;;;112.32;64.57;;;;;;;-0.75;44.63;99970.34;4768768;29;20142;-82
2023/02/04 09:55:28;;;;;;;147.27;77.35;;;;;;;-0.54;44.39;99978.59;4787397;29;20150;-86
2023/02/04 09:57:54;;;;;;;158.15;86.88;;;;;;;-0.66;44.18;99969.25;4788305;30;20098;-82
2023/02/04 10:00:25;;;;;;;169.73;97.07;;;;;;;-0.78;44.76;99959.94;4808644;30;20031;-85
2023/02/04 10:02:51;;;;;;;176.80;104.95;;;;;;;-0.81;45.46;99975.75;4795155;29;20062;-85
2023/02/04 10:05:26;;;;;;;172.05;100.72;;;;;;;-0.73;45.24;99973.78;4795866;30;20051;-88
2023/02/04 10:07:52;;;;;;;177.32;103.38;;;;;;;-0.49;44.80;99966.22;4795694;29;20408;-84
2023/02/04 10:10:21;;;;;;;164.05;97.78;;;;;;;-0.48;44.97;99967.09;4767092;30;20050;-83
2023/02/04 10:12:49;;;;;;;152.88;88.13;;;;;;;-0.61;45.28;99967.38;4789034;30;20112;-85
2023/02/04 10:15:21;;;;;;;144.23;80.78;;;;;;;-0.43;44.87;99965.22;4774409;30;20145;-87
2023/02/04 10:17:54;;;;;;;130.70;72.82;;;;;;;-0.39;44.74;99964.22;4789044;30;20050;-88
2023/02/04 10:20:22;;;;;;;110.53;63.15;;;;;;;-0.58;44.98;99961.19;4773657;30;20055;-81
2023/02/04 10:22:52;;;;;;;114.95;64.22;;;;;;;-0.77;44.84;99951.16;4775944;30;20128;-88
2023/02/04 10:25:20;;;;;;;106.90;60.55;;;;;;;-0.67;45.06;99950.94;4807532;29;20059;-83
2023/02/04 10:27:51;;;;;;;90.88;52.05;;;;;;;-0.71;44.71;99950.16;4776960;30;20555;-88
2023/02/04 10:30:20;;;;;;;98.20;54.58;;;;;;;-0.79;44.56;99942.47;4790827;29;20047;-90
2023/02/04 10:32:47;;;;;;;109.10;50.83;;;;;;;-0.80;44.80;99951.22;4789757;30;20054;-87
2023/02/04 10:35:15;;;;;;;83.22;48.83;;;;;;;-0.75;44.82;99944.09;4790342;30;20109;-87
2023/02/04 10:37:41;;;;;;;67.93;41.30;;;;;;;-0.55;44.08;99950.63;4775630;30;20058;-87
2023/02/04 10:40:26;;;;;;;72.88;40.25;;;;;;;-0.48;44.48;99953.97;4778727;30;20066;-87
2023/02/04 10:42:52;;;;;;;79.55;45.45;;;;;;;-0.43;44.37;99952.94;4803222;29;20043;-88
2023/02/04 10:45:23;;;;;;;70.93;40.53;;;;;;;-0.25;44.18;99954.22;4799889;29;20055;-89
2023/02/04 10:47:51;;;;;;;62.60;35.97;;;;;;;-0.17;44.15;99954.03;4779543;30;20112;-84
2023/02/04 10:50:19;;;;;;;67.32;38.15;;;;;;;0.02;43.71;99951.78;4774190;30;20128;-88
2023/02/04 10:52:48;;;;;;;53.35;34.28;;;;;;;0.24;43.62;99953.75;4795440;30;20038;-86
2023/02/04 10:55:16;;;;;;;;;;;;;;;0.16;43.35;99953.13;4785689;30;20470;-90
2023/02/04 10:57:45;;;;;;;44.35;28.60;;;;;;;0.26;43.81;99961.59;4797746;29;19965;-86
2023/02/04 11:00:31;;;;;;;44.88;28.65;;;;;;;0.40;43.70;99956.81;4779989;30;20146;-87
2023/02/04 11:03:17;;;;;;;44.50;27.20;;;;;;;0.19;43.42;99953.03;4795834;29;20423;-88
2023/02/04 11:05:43;;;;;;;55.85;30.65;;;;;;;0.01;43.63;99953.53;4793756;30;20062;-92